Time;durP1;ratioP1;P1;durP2;ratioP2;P2;SDS_P1;SDS_P2;PMS_P1;PMS_P2;Temp;Humidity;BMP_temperature;BMP_pressure;BME280_temperature;BME280_humidity;BME280_pressure;Samples;Min_cycle;Max_cycle;Signal;HPM_P1;HPM_P2
2022/11/14 00:01:55;;;;;;;9.98;5.18;;;2.70;99.90;;;;;;7348644;32;20141;-58
2022/11/14 00:05:57;;;;;;;10.32;5.15;;;2.70;99.90;;;;;;7349022;32;20150;-58
2022/11/14 00:09:59;;;;;;;8.93;4.78;;;2.70;99.90;;;;;;7348507;32;20498;-58
2022/11/14 00:14:01;;;;;;;11.43;4.47;;;2.60;99.90;;;;;;7354000;32;20161;-58
2022/11/14 00:18:03;;;;;;;8.77;4.60;;;2.50;99.90;;;;;;7355802;32;20141;-58
2022/11/14 00:22:04;;;;;;;8.05;4.43;;;2.50;99.90;;;;;;7350385;32;20220;-58
2022/11/14 00:26:06;;;;;;;7.57;3.65;;;2.50;99.90;;;;;;7356677;32;20550;-57
2022/11/14 00:30:08;;;;;;;5.70;3.60;;;2.40;99.90;;;;;;7349352;32;20531;-58
2022/11/14 00:34:10;;;;;;;5.35;3.65;;;2.40;99.90;;;;;;7358822;32;20178;-58
2022/11/14 00:38:11;;;;;;;6.93;3.33;;;2.40;99.90;;;;;;7353732;32;20119;-58
2022/11/14 00:42:13;;;;;;;5.85;3.22;;;2.40;99.90;;;;;;7352243;32;20542;-58
2022/11/14 00:46:15;;;;;;;6.35;3.35;;;2.40;99.90;;;;;;7354296;32;20553;-58
2022/11/14 00:50:17;;;;;;;6.35;3.65;;;2.40;99.90;;;;;;7350492;32;20547;-58
2022/11/14 00:54:19;;;;;;;5.68;3.28;;;2.30;99.90;;;;;;7358436;32;20149;-58
2022/11/14 00:58:21;;;;;;;6.87;3.00;;;2.30;99.90;;;;;;7341191;32;20183;-59
2022/11/14 01:02:23;;;;;;;6.55;3.00;;;2.30;99.90;;;;;;7355704;32;20133;-58
2022/11/14 01:06:24;;;;;;;4.87;2.92;;;2.20;99.90;;;;;;7350404;32;20225;-58
2022/11/14 01:10:26;;;;;;;5.82;3.10;;;2.30;99.90;;;;;;7350299;32;20466;-58
2022/11/14 01:14:28;;;;;;;6.40;3.20;;;2.30;99.90;;;;;;7356142;32;20179;-59
2022/11/14 01:18:30;;;;;;;6.90;2.95;;;2.20;99.90;;;;;;7349407;32;20183;-58
2022/11/14 01:22:32;;;;;;;5.95;2.78;;;2.20;99.90;;;;;;7347401;32;20107;-58
2022/11/14 01:26:34;;;;;;;5.87;3.12;;;2.10;99.90;;;;;;7352296;32;20336;-58
2022/11/14 01:30:36;;;;;;;5.82;2.95;;;2.10;99.90;;;;;;7346915;32;20120;-58
2022/11/14 01:34:38;;;;;;;4.28;2.50;;;2.10;99.90;;;;;;7358635;32;20111;-58
2022/11/14 01:38:39;;;;;;;7.25;2.90;;;2.10;99.90;;;;;;7355826;32;20225;-58
2022/11/14 01:42:41;;;;;;;6.37;3.03;;;2.00;99.90;;;;;;7347600;32;20111;-58
2022/11/14 01:46:48;;;;;;;5.57;2.78;;;2.00;99.90;;;;;;7350344;32;20107;-58
2022/11/14 01:50:56;;;;;;;5.57;2.72;;;2.00;99.90;;;;;;7350153;32;20533;-58
2022/11/14 01:55:01;;;;;;;8.00;2.72;;;2.00;99.90;;;;;;7352912;32;20144;-58
2022/11/14 01:59:08;;;;;;;4.80;2.78;;;2.00;99.90;;;;;;7349555;32;20133;-59
2022/11/14 02:03:13;;;;;;;3.87;2.62;;;1.90;99.90;;;;;;7346228;32;20118;-59
2022/11/14 02:07:16;;;;;;;5.87;2.92;;;1.90;99.90;;;;;;7352488;32;20198;-59
2022/11/14 02:11:18;;;;;;;5.87;2.85;;;1.80;99.90;;;;;;7350209;32;20214;-59
2022/11/14 02:15:20;;;;;;;4.03;2.65;;;1.80;99.90;;;;;;7347998;32;20141;-59
2022/11/14 02:19:22;;;;;;;5.68;2.80;;;1.80;99.90;;;;;;7348521;32;20178;-59
2022/11/14 02:23:26;;;;;;;3.78;2.50;;;1.70;99.90;;;;;;7350394;32;20664;-59
2022/11/14 02:27:29;;;;;;;5.68;2.95;;;1.70;99.90;;;;;;7348458;32;20541;-59
2022/11/14 02:31:31;;;;;;;5.43;2.85;;;1.70;99.90;;;;;;7342866;32;20614;-59
2022/11/14 02:35:32;;;;;;;4.28;2.85;;;1.70;99.90;;;;;;7353293;32;20172;-59
2022/11/14 02:39:34;;;;;;;5.68;2.72;;;1.60;99.90;;;;;;7350032;32;20202;-59
2022/11/14 02:43:36;;;;;;;5.22;2.60;;;1.60;99.90;;;;;;7348021;32;20123;-59
2022/11/14 02:47:37;;;;;;;5.53;2.58;;;1.60;99.90;;;;;;7348500;32;20210;-59
2022/11/14 02:51:40;;;;;;;6.03;2.78;;;1.50;99.90;;;;;;7349100;32;20103;-58
2022/11/14 02:55:41;;;;;;;5.45;2.45;;;1.50;99.90;;;;;;7349798;32;20141;-59
2022/11/14 02:59:43;;;;;;;7.93;2.60;;;1.50;99.90;;;;;;7345735;32;20152;-59
2022/11/14 03:03:45;;;;;;;4.60;2.60;;;1.50;99.90;;;;;;7347697;32;20610;-59
2022/11/14 03:07:47;;;;;;;3.78;2.47;;;1.50;99.90;;;;;;7351601;32;20123;-59
2022/11/14 03:11:48;;;;;;;5.32;2.58;;;1.50;99.90;;;;;;7350424;32;20469;-59
2022/11/14 03:15:50;;;;;;;4.68;2.55;;;1.50;99.90;;;;;;7354366;32;20140;-59
2022/11/14 03:19:52;;;;;;;5.12;2.60;;;1.40;99.90;;;;;;7356654;32;20133;-59
2022/11/14 03:23:53;;;;;;;7.68;2.67;;;1.40;99.90;;;;;;7357027;32;20100;-58
2022/11/14 03:27:55;;;;;;;4.50;2.53;;;1.30;99.90;;;;;;7354032;32;20190;-59
2022/11/14 03:31:57;;;;;;;5.07;2.70;;;1.30;99.90;;;;;;7348318;32;20157;-59
2022/11/14 03:35:58;;;;;;;3.95;2.30;;;1.30;99.90;;;;;;7353041;32;20134;-58
2022/11/14 03:40:00;;;;;;;5.62;2.50;;;1.30;99.90;;;;;;7355189;32;20246;-59
2022/11/14 03:44:02;;;;;;;6.03;2.85;;;1.30;99.90;;;;;;7345616;32;20171;-59
2022/11/14 03:48:07;;;;;;;6.78;2.55;;;1.20;99.90;;;;;;7352514;32;20137;-59
2022/11/14 03:52:08;;;;;;;3.60;1.90;;;1.30;99.90;;;;;;7349301;32;20110;-58
2022/11/14 03:56:10;;;;;;;5.57;2.33;;;1.30;99.90;;;;;;7361295;32;20122;-59
2022/11/14 04:00:12;;;;;;;6.30;2.50;;;1.30;99.90;;;;;;7349895;32;20520;-59
2022/11/14 04:04:14;;;;;;;4.37;2.15;;;1.30;99.90;;;;;;7355133;32;20115;-59
2022/11/14 04:08:16;;;;;;;3.87;2.62;;;1.30;99.90;;;;;;7359243;32;20190;-59
2022/11/14 04:12:17;;;;;;;4.40;2.45;;;1.30;99.90;;;;;;7355060;32;20107;-59
2022/11/14 04:16:19;;;;;;;6.07;2.28;;;1.30;99.90;;;;;;7346771;32;20108;-59
2022/11/14 04:20:21;;;;;;;4.60;2.45;;;1.30;99.90;;;;;;7354206;32;20107;-59
2022/11/14 04:24:22;;;;;;;6.12;2.60;;;1.30;99.90;;;;;;7355242;32;20129;-58
2022/11/14 04:28:24;;;;;;;3.45;2.45;;;1.30;99.90;;;;;;7351712;32;20103;-59
2022/11/14 04:32:26;;;;;;;4.45;2.53;;;1.40;99.90;;;;;;7356084;32;20551;-59
2022/11/14 04:36:27;;;;;;;5.03;2.35;;;1.30;99.90;;;;;;7356511;32;20119;-59
2022/11/14 04:40:29;;;;;;;4.07;2.12;;;1.30;99.90;;;;;;7350510;32;20139;-59
2022/11/14 04:44:31;;;;;;;7.50;2.62;;;1.30;99.90;;;;;;7357066;32;20127;-59
2022/11/14 04:48:32;;;;;;;3.87;2.30;;;1.30;99.90;;;;;;7353944;32;20118;-59
2022/11/14 04:52:34;;;;;;;4.05;2.28;;;1.40;99.90;;;;;;7342889;32;20123;-59
2022/11/14 04:56:36;;;;;;;5.22;2.58;;;1.50;99.90;;;;;;7345817;32;20261;-59
2022/11/14 05:00:38;;;;;;;4.80;2.60;;;1.60;99.90;;;;;;7343914;32;20153;-58
2022/11/14 05:04:39;;;;;;;7.22;2.70;;;1.60;99.90;;;;;;7347001;32;20114;-59
2022/11/14 05:08:41;;;;;;;6.07;2.80;;;1.70;99.90;;;;;;7349386;32;20570;-59
2022/11/14 05:12:43;;;;;;;4.93;2.55;;;1.60;99.90;;;;;;7354039;32;20111;-57
2022/11/14 05:16:44;;;;;;;5.03;2.78;;;1.60;99.90;;;;;;7348995;32;20111;-58
2022/11/14 05:20:46;;;;;;;6.30;2.58;;;1.60;99.90;;;;;;7354659;32;20222;-57
2022/11/14 05:24:48;;;;;;;3.67;2.42;;;1.60;99.90;;;;;;7354709;32;20111;-58
2022/11/14 05:28:50;;;;;;;4.97;2.83;;;1.70;99.90;;;;;;7352195;32;20125;-58
2022/11/14 05:32:52;;;;;;;5.78;2.70;;;1.80;99.90;;;;;;7347799;32;20230;-58
2022/11/14 05:36:53;;;;;;;7.03;2.70;;;1.70;99.90;;;;;;7355066;32;20133;-58
2022/11/14 05:40:55;;;;;;;5.37;2.87;;;1.70;99.90;;;;;;7348056;32;20578;-58
2022/11/14 05:44:57;;;;;;;4.85;2.85;;;1.70;99.90;;;;;;7347424;32;20192;-58
2022/11/14 05:48:58;;;;;;;4.62;2.70;;;1.80;99.90;;;;;;7348953;32;20119;-59
2022/11/14 05:53:00;;;;;;;7.30;3.22;;;1.80;99.90;;;;;;7355719;32;20797;-58
2022/11/14 05:57:02;;;;;;;7.07;3.70;;;1.90;99.90;;;;;;7354105;32;20107;-59
2022/11/14 06:01:07;;;;;;;5.90;3.45;;;2.00;99.90;;;;;;7345389;32;20696;-58
2022/11/14 06:05:09;;;;;;;7.18;4.65;;;2.20;99.90;;;;;;7353352;32;20249;-58
2022/11/14 06:09:10;;;;;;;35.95;18.92;;;2.30;99.90;;;;;;7347600;32;20111;-60
2022/11/14 06:13:12;;;;;;;8.90;5.45;;;2.30;99.90;;;;;;7352696;32;20137;-58
2022/11/14 06:17:14;;;;;;;8.27;4.78;;;2.30;99.90;;;;;;7350555;32;20129;-58
2022/11/14 06:21:19;;;;;;;12.05;7.28;;;2.30;99.90;;;;;;7352177;32;20444;-58
2022/11/14 06:25:20;;;;;;;15.75;8.98;;;2.30;99.90;;;;;;7351953;32;20178;-58
2022/11/14 06:29:22;;;;;;;8.18;4.60;;;2.30;99.90;;;;;;7348836;32;20478;-58
2022/11/14 06:33:24;;;;;;;7.95;4.10;;;2.30;99.90;;;;;;7350185;32;20099;-58
2022/11/14 06:37:26;;;;;;;8.65;4.22;;;2.20;99.90;;;;;;7345545;32;20220;-58
2022/11/14 06:41:34;;;;;;;6.20;4.30;;;2.20;99.90;;;;;;7342268;32;20213;-58
2022/11/14 06:45:35;;;;;;;18.62;11.63;;;2.20;99.90;;;;;;7345141;32;20111;-59
2022/11/14 06:49:37;;;;;;;7.62;4.50;;;2.30;99.90;;;;;;7340156;32;20479;-60
2022/11/14 06:53:42;;;;;;;48.90;28.30;;;2.20;99.90;;;;;;7352639;32;20179;-59
2022/11/14 06:57:44;;;;;;;20.10;10.82;;;2.20;99.90;;;;;;7355759;32;20119;-60
2022/11/14 07:01:45;;;;;;;12.60;8.77;;;2.30;99.90;;;;;;7354095;32;20114;-59
2022/11/14 07:05:47;;;;;;;8.68;5.40;;;2.40;99.90;;;;;;7351910;32;20111;-60
2022/11/14 07:09:49;;;;;;;8.50;5.07;;;2.40;99.90;;;;;;7354526;32;20103;-60
2022/11/14 07:14:01;;;;;;;9.80;5.00;;;2.50;99.90;;;;;;7355664;32;20134;-61
2022/11/14 07:18:03;;;;;;;8.60;6.00;;;2.40;99.90;;;;;;7352757;32;20107;-59
2022/11/14 07:22:04;;;;;;;8.65;6.12;;;2.60;99.90;;;;;;7348499;32;20107;-60
2022/11/14 07:26:08;;;;;;;11.57;7.68;;;2.80;99.90;;;;;;7354762;32;20225;-60
2022/11/14 07:30:10;;;;;;;14.48;7.62;;;3.00;99.90;;;;;;7354562;32;20133;-60
2022/11/14 07:34:12;;;;;;;13.00;7.57;;;3.20;99.90;;;;;;7360081;32;20149;-60
2022/11/14 07:38:14;;;;;;;9.82;7.03;;;3.40;99.90;;;;;;7358126;32;20182;-60
2022/11/14 07:42:16;;;;;;;12.15;7.30;;;3.60;99.90;;;;;;7353673;32;20202;-60
2022/11/14 07:46:18;;;;;;;15.40;7.87;;;3.70;99.90;;;;;;7355432;32;20122;-60
2022/11/14 07:50:19;;;;;;;13.48;7.87;;;3.80;99.90;;;;;;7346017;32;20149;-60
2022/11/14 07:54:21;;;;;;;14.18;8.60;;;3.90;99.90;;;;;;7360736;32;20152;-61
2022/11/14 07:58:23;;;;;;;16.02;10.25;;;4.20;99.90;;;;;;7347007;32;20137;-61
2022/11/14 08:02:24;;;;;;;18.65;10.52;;;4.60;99.90;;;;;;7356989;32;20220;-60
2022/11/14 08:06:26;;;;;;;18.35;10.55;;;5.00;99.90;;;;;;7358106;32;20193;-62
2022/11/14 08:10:28;;;;;;;17.48;11.45;;;5.30;99.90;;;;;;7351209;32;20115;-60
2022/11/14 08:14:34;;;;;;;17.95;11.55;;;5.50;99.90;;;;;;7352290;32;20187;-60
2022/11/14 08:18:36;;;;;;;19.58;12.10;;;5.80;99.90;;;;;;7352908;32;20195;-61
2022/11/14 08:22:37;;;;;;;18.75;12.43;;;5.80;99.90;;;;;;7348459;32;20111;-60
2022/11/14 08:26:39;;;;;;;21.00;12.60;;;6.10;99.90;;;;;;7357766;32;20542;-59
2022/11/14 08:30:41;;;;;;;22.75;12.98;;;6.30;99.90;;;;;;7346258;32;20596;-62
2022/11/14 08:34:42;;;;;;;19.50;12.95;;;6.40;99.90;;;;;;7348534;32;20111;-61
2022/11/14 08:38:44;;;;;;;18.55;12.57;;;6.70;99.90;;;;;;7355772;32;20129;-60
2022/11/14 08:42:46;;;;;;;20.20;13.50;;;6.80;99.90;;;;;;7352436;32;20194;-60
2022/11/14 08:46:49;;;;;;;20.88;13.00;;;6.90;99.90;;;;;;7352870;32;20723;-61
2022/11/14 08:50:51;;;;;;;22.10;14.35;;;7.00;99.90;;;;;;7346200;32;20115;-61
2022/11/14 08:54:52;;;;;;;24.42;14.68;;;7.20;99.90;;;;;;7341131;32;20135;-61
2022/11/14 08:58:54;;;;;;;23.80;14.95;;;7.30;99.90;;;;;;7350065;32;20811;-61
2022/11/14 09:02:56;;;;;;;26.52;14.90;;;7.20;99.90;;;;;;7350815;32;20107;-62
2022/11/14 09:06:58;;;;;;;24.23;14.75;;;7.30;99.90;;;;;;7342088;32;20115;-59
2022/11/14 09:11:01;;;;;;;22.45;14.63;;;7.30;99.90;;;;;;7343981;32;20108;-62
2022/11/14 09:15:07;;;;;;;;;;;7.50;99.90;;;;;;7349933;32;20189;-59
2022/11/14 09:19:08;;;;;;;24.60;15.15;;;7.50;99.90;;;;;;7343074;32;20010;-61
2022/11/14 09:23:10;;;;;;;24.80;15.50;;;7.50;99.90;;;;;;7347148;32;20226;-60
2022/11/14 09:27:12;;;;;;;28.20;16.45;;;7.50;99.90;;;;;;7349325;32;20124;-63
2022/11/14 09:31:14;;;;;;;26.15;15.77;;;7.50;99.90;;;;;;7348050;32;20115;-60
2022/11/14 09:35:16;;;;;;;23.95;15.73;;;7.60;99.90;;;;;;7351442;32;20224;-60
2022/11/14 09:39:18;;;;;;;24.27;15.48;;;7.50;99.90;;;;;;7354601;32;20103;-60
2022/11/14 09:43:44;;;;;;;30.17;16.58;;;7.50;99.90;;;;;;7354040;32;20115;-61
2022/11/14 09:48:01;;;;;;;24.27;15.80;;;7.60;99.90;;;;;;7347189;32;20204;-63
2022/11/14 09:52:46;;;;;;;22.75;14.68;;;7.60;99.90;;;;;;7357099;32;20157;-62
2022/11/14 09:56:48;;;;;;;23.80;15.23;;;7.80;99.90;;;;;;7325183;32;20133;-63
2022/11/14 10:00:56;;;;;;;23.08;13.68;;;7.80;99.90;;;;;;7354700;32;20133;-60
2022/11/14 10:05:12;;;;;;;26.45;13.50;;;7.70;99.90;;;;;;7355802;32;20542;-59
2022/11/14 10:09:29;;;;;;;21.80;13.73;;;7.80;99.90;;;;;;7340788;32;20456;-61
2022/11/14 10:13:58;;;;;;;18.98;12.98;;;7.80;99.90;;;;;;7329548;32;20338;-61
2022/11/14 10:18:27;;;;;;;18.80;11.63;;;7.70;99.90;;;;;;7338574;32;20119;-59
2022/11/14 10:23:04;;;;;;;17.95;10.90;;;7.80;99.90;;;;;;7351763;32;20517;-59
2022/11/14 10:27:26;;;;;;;22.00;10.82;;;7.80;99.90;;;;;;7345212;32;20198;-59
2022/11/14 10:31:39;;;;;;;15.73;9.70;;;7.90;99.90;;;;;;7353902;32;20137;-60
2022/11/14 10:36:17;;;;;;;13.85;8.75;;;7.80;99.90;;;;;;7355222;32;20153;-61
2022/11/14 10:40:28;;;;;;;14.02;8.35;;;8.00;99.90;;;;;;7346481;32;20373;-62
2022/11/14 10:44:37;;;;;;;10.65;7.32;;;8.10;99.90;;;;;;7346758;32;20132;-60
2022/11/14 10:48:45;;;;;;;10.90;6.87;;;8.20;99.90;;;;;;7344205;32;20103;-61
2022/11/14 10:52:55;;;;;;;11.77;7.78;;;8.20;99.90;;;;;;7342171;32;20234;-60
2022/11/14 10:56:57;;;;;;;11.07;7.75;;;8.20;99.90;;;;;;7346618;32;20245;-62
2022/11/14 11:01:37;;;;;;;10.20;7.82;;;8.40;99.90;;;;;;7336978;32;20238;-60
2022/11/14 11:05:58;;;;;;;13.55;8.55;;;8.40;99.90;;;;;;7349193;32;20153;-59
2022/11/14 11:14:21;;;;;;;15.13;9.50;;;8.50;99.90;;;;;;7347442;32;20190;-61
2022/11/14 11:18:34;;;;;;;16.67;9.77;;;8.50;99.90;;;;;;7339225;32;20114;-60
2022/11/14 11:22:37;;;;;;;15.57;10.45;;;8.60;99.90;;;;;;7333110;32;20191;-59
2022/11/14 11:26:39;;;;;;;14.85;9.90;;;8.70;99.90;;;;;;7346782;32;20135;-60
2022/11/14 11:30:55;;;;;;;15.40;9.55;;;8.80;99.90;;;;;;7336490;32;20437;-62
2022/11/14 11:35:00;;;;;;;15.38;10.02;;;9.10;99.90;;;;;;7347789;32;21371;-60
2022/11/14 11:39:01;;;;;;;16.15;10.60;;;9.20;99.90;;;;;;7348121;32;20123;-61
2022/11/14 11:43:31;;;;;;;14.13;10.05;;;9.40;99.90;;;;;;7352668;32;20123;-61
2022/11/14 11:47:41;;;;;;;14.55;9.65;;;9.30;99.90;;;;;;7307622;32;20111;-60
2022/11/14 11:51:45;;;;;;;15.32;10.10;;;9.50;99.90;;;;;;7342117;32;20502;-63
2022/11/14 11:55:51;;;;;;;15.10;9.90;;;9.50;99.90;;;;;;7360386;32;20627;-60
2022/11/14 12:00:00;;;;;;;16.80;11.00;;;9.50;99.90;;;;;;7352861;32;20139;-61
2022/11/14 12:04:03;;;;;;;17.60;10.18;;;9.70;99.90;;;;;;7338373;32;20111;-60
2022/11/14 12:08:35;;;;;;;20.25;11.60;;;9.80;99.90;;;;;;7349524;32;20556;-60
2022/11/14 12:12:43;;;;;;;14.60;9.60;;;10.00;99.90;;;;;;7342300;32;20194;-62
2022/11/14 12:17:29;;;;;;;16.00;10.45;;;10.00;99.90;;;;;;7342629;32;20119;-61
2022/11/14 12:21:48;;;;;;;14.80;9.80;;;9.80;99.90;;;;;;7341000;32;20133;-60
2022/11/14 12:26:08;;;;;;;16.00;10.18;;;9.70;99.90;;;;;;7348067;32;20569;-60
2022/11/14 12:30:22;;;;;;;13.65;9.98;;;9.70;99.90;;;;;;7340312;32;20103;-60
2022/11/14 12:34:31;;;;;;;14.00;9.70;;;9.80;99.90;;;;;;7341514;32;20167;-63
2022/11/14 12:38:52;;;;;;;13.30;9.43;;;9.80;99.90;;;;;;7343621;32;20131;-61
2022/11/14 12:42:56;;;;;;;13.82;9.85;;;9.90;99.90;;;;;;7338455;32;20126;-62
2022/11/14 12:47:04;;;;;;;15.18;9.52;;;9.90;99.90;;;;;;7341530;32;20129;-62
2022/11/14 12:51:26;;;;;;;13.82;9.68;;;10.00;99.90;;;;;;7337134;32;20161;-62
2022/11/14 12:55:28;;;;;;;15.02;10.10;;;10.10;99.90;;;;;;7331053;32;20560;-64
2022/11/14 12:59:47;;;;;;;14.95;10.00;;;9.90;99.90;;;;;;7338901;32;20107;-61
2022/11/14 13:03:58;;;;;;;14.10;9.98;;;9.90;99.90;;;;;;7341368;32;20111;-60
2022/11/14 13:08:12;;;;;;;14.32;9.93;;;9.90;99.90;;;;;;7340694;32;20115;-62
2022/11/14 13:21:44;;;;;;;14.32;10.02;;;9.90;99.90;;;;;;7342971;32;20137;-64
2022/11/14 13:25:46;;;;;;;16.77;10.45;;;9.90;99.90;;;;;;7354086;32;20220;-61
2022/11/14 13:29:48;;;;;;;15.40;10.40;;;9.80;99.90;;;;;;7352312;32;20123;-61
2022/11/14 13:33:58;;;;;;;16.00;10.27;;;9.70;99.90;;;;;;7357789;32;20679;-64
2022/11/14 13:38:21;;;;;;;18.70;11.40;;;9.70;99.90;;;;;;7355863;32;20167;-61
2022/11/14 13:43:00;;;;;;;16.40;10.90;;;9.60;99.90;;;;;;7357710;32;20161;-61
2022/11/14 13:47:14;;;;;;;16.95;11.15;;;9.50;99.90;;;;;;7352265;32;20158;-62
2022/11/14 13:51:18;;;;;;;21.17;12.13;;;9.50;99.90;;;;;;7351838;32;20157;-61
2022/11/14 13:55:51;;;;;;;17.50;11.70;;;9.50;99.90;;;;;;7353896;32;20171;-61
2022/11/14 14:00:12;;;;;;;20.00;11.95;;;9.30;99.90;;;;;;7346968;32;20107;-62
2022/11/14 14:04:45;;;;;;;16.50;10.82;;;9.30;99.90;;;;;;7349710;32;20138;-61
2022/11/14 14:09:08;;;;;;;20.42;12.65;;;9.30;99.90;;;;;;7353325;32;20198;-61
2022/11/14 14:13:46;;;;;;;16.92;11.65;;;9.30;99.90;;;;;;7356955;32;20136;-61
2022/11/14 14:18:07;;;;;;;19.12;11.90;;;9.20;99.90;;;;;;7343711;32;20876;-61
2022/11/14 14:22:39;;;;;;;14.75;10.30;;;9.20;99.90;;;;;;7337904;32;20225;-61
2022/11/14 14:27:18;;;;;;;15.73;11.23;;;9.20;99.90;;;;;;7336180;32;20126;-63
2022/11/14 14:31:22;;;;;;;15.68;10.80;;;9.10;99.90;;;;;;7347277;32;20134;-60
2022/11/14 14:35:26;;;;;;;16.12;11.52;;;9.20;99.90;;;;;;7347957;32;20470;-62
2022/11/14 14:39:28;;;;;;;16.62;11.05;;;9.40;99.90;;;;;;7345445;32;20119;-62
2022/11/14 14:43:34;;;;;;;15.40;10.88;;;9.30;99.90;;;;;;7342388;32;20542;-60
2022/11/14 14:47:40;;;;;;;17.02;10.75;;;9.30;99.90;;;;;;7345977;32;20579;-60
2022/11/14 14:51:43;;;;;;;18.70;10.93;;;9.30;99.90;;;;;;7346313;32;20133;-62
2022/11/14 14:55:52;;;;;;;13.50;9.95;;;9.30;99.90;;;;;;7345886;32;20441;-67
2022/11/14 15:00:02;;;;;;;13.88;10.10;;;9.20;99.90;;;;;;7348232;32;20516;-60
2022/11/14 15:04:07;;;;;;;16.65;10.95;;;9.20;99.90;;;;;;7346936;32;20137;-62
2022/11/14 15:08:15;;;;;;;15.15;10.82;;;9.20;99.90;;;;;;7343517;32;20134;-63
2022/11/14 15:12:17;;;;;;;16.23;11.02;;;9.10;99.90;;;;;;7347853;32;20202;-60
2022/11/14 15:16:20;;;;;;;17.10;11.57;;;9.10;99.90;;;;;;7345131;32;20221;-60
2022/11/14 15:20:27;;;;;;;19.25;13.50;;;9.10;99.90;;;;;;7339141;32;21586;-61
2022/11/14 15:24:29;;;;;;;17.75;12.23;;;9.10;99.90;;;;;;7339885;32;20194;-60
2022/11/14 15:28:32;;;;;;;19.23;11.88;;;9.10;99.90;;;;;;7341735;32;20667;-62
2022/11/14 15:32:34;;;;;;;18.33;11.80;;;9.20;99.90;;;;;;7337011;32;20879;-61
2022/11/14 15:36:56;;;;;;;19.05;12.80;;;9.10;99.90;;;;;;7357878;32;20107;-62
2022/11/14 15:41:21;;;;;;;16.08;11.43;;;9.00;99.90;;;;;;7350132;32;20256;-60
2022/11/14 15:45:39;;;;;;;21.92;12.80;;;9.00;99.90;;;;;;7350824;32;20236;-61
2022/11/14 15:49:50;;;;;;;;;;;9.00;99.90;;;;;;7356591;32;20174;-61
2022/11/14 15:53:53;;;;;;;17.62;12.18;;;8.90;99.90;;;;;;7354968;32;20097;-62
2022/11/14 15:57:55;;;;;;;19.73;11.95;;;8.90;99.90;;;;;;7351550;32;20507;-59
2022/11/14 16:02:21;;;;;;;18.45;12.07;;;8.90;99.90;;;;;;7354326;32;20115;-59
2022/11/14 16:06:23;;;;;;;16.67;12.17;;;8.80;99.90;;;;;;7355847;32;20530;-59
2022/11/14 16:10:26;;;;;;;20.58;13.13;;;8.90;99.90;;;;;;7354282;32;20344;-58
2022/11/14 16:14:28;;;;;;;18.80;12.40;;;8.80;99.90;;;;;;7349676;32;20721;-59
2022/11/14 16:18:30;;;;;;;18.73;12.77;;;8.80;99.90;;;;;;7356767;32;20650;-58
2022/11/14 16:22:31;;;;;;;19.67;12.43;;;8.80;99.90;;;;;;7349779;32;20116;-59
2022/11/14 16:26:34;;;;;;;19.33;12.73;;;8.80;99.90;;;;;;7351311;32;20685;-58
2022/11/14 16:30:36;;;;;;;20.00;13.50;;;8.70;99.90;;;;;;7347114;32;20773;-59
2022/11/14 16:34:38;;;;;;;18.40;12.85;;;8.70;99.90;;;;;;7352249;32;20186;-59
2022/11/14 16:38:39;;;;;;;19.15;13.05;;;8.70;99.90;;;;;;7355399;32;20112;-59
2022/11/14 16:42:42;;;;;;;18.30;12.85;;;8.60;99.90;;;;;;7358090;32;20129;-59
2022/11/14 16:46:44;;;;;;;15.40;11.88;;;8.60;99.90;;;;;;7348636;32;20190;-59
2022/11/14 16:50:46;;;;;;;18.37;12.45;;;8.70;99.90;;;;;;7339000;32;20633;-59
2022/11/14 16:54:48;;;;;;;16.45;11.93;;;8.80;99.90;;;;;;7339166;32;20214;-59
2022/11/14 16:58:54;;;;;;;19.15;13.82;;;8.70;99.90;;;;;;7335350;32;20107;-59
2022/11/14 17:02:56;;;;;;;17.10;12.60;;;8.70;99.90;;;;;;7340026;32;22652;-59
2022/11/14 17:06:57;;;;;;;18.30;12.60;;;8.60;99.90;;;;;;7338219;32;20129;-59
2022/11/14 17:10:59;;;;;;;21.45;12.63;;;8.70;99.90;;;;;;7341484;32;20153;-59
2022/11/14 17:15:01;;;;;;;21.55;13.55;;;8.60;99.90;;;;;;7338775;32;20218;-59
2022/11/14 17:19:03;;;;;;;16.87;12.05;;;8.70;99.90;;;;;;7336655;32;20241;-59
2022/11/14 17:23:04;;;;;;;18.45;12.60;;;8.60;99.90;;;;;;7338202;32;20574;-59
2022/11/14 17:27:07;;;;;;;18.40;12.82;;;8.60;99.90;;;;;;7340318;32;20567;-59
2022/11/14 17:31:09;;;;;;;15.80;11.65;;;8.60;99.90;;;;;;7338807;32;20228;-59
2022/11/14 17:35:11;;;;;;;16.45;13.07;;;8.60;99.90;;;;;;7338965;32;20452;-59
2022/11/14 17:39:13;;;;;;;17.90;12.68;;;8.60;99.90;;;;;;7336714;32;20107;-58
2022/11/14 17:43:15;;;;;;;17.30;11.55;;;8.60;99.90;;;;;;7336250;32;20277;-59
2022/11/14 17:47:18;;;;;;;16.42;11.70;;;8.70;99.90;;;;;;7342748;32;20676;-59
2022/11/14 17:51:20;;;;;;;16.58;12.02;;;8.70;99.90;;;;;;7341864;32;20202;-59
2022/11/14 17:55:21;;;;;;;18.02;12.00;;;8.80;99.90;;;;;;7338104;32;20302;-61
2022/11/14 17:59:23;;;;;;;15.38;11.63;;;8.80;99.90;;;;;;7353301;32;20106;-60
2022/11/14 18:03:26;;;;;;;14.02;10.82;;;8.80;99.90;;;;;;7345059;32;20178;-60
2022/11/14 18:07:29;;;;;;;17.92;11.63;;;8.80;99.90;;;;;;7340146;32;20198;-60
2022/11/14 18:11:31;;;;;;;15.18;11.38;;;8.80;99.90;;;;;;7335455;32;20187;-61
2022/11/14 18:15:33;;;;;;;17.40;11.95;;;8.80;99.90;;;;;;7335443;32;20915;-61
2022/11/14 18:19:35;;;;;;;14.60;10.65;;;8.80;99.90;;;;;;7337660;32;20655;-60
2022/11/14 18:23:37;;;;;;;16.08;10.57;;;8.70;99.90;;;;;;7337526;32;20119;-60
2022/11/14 18:27:39;;;;;;;16.02;11.18;;;8.70;99.90;;;;;;7341179;32;20174;-60
2022/11/14 18:31:41;;;;;;;16.10;10.82;;;8.70;99.90;;;;;;7356468;32;20110;-60
2022/11/14 18:35:42;;;;;;;15.23;11.12;;;8.70;99.90;;;;;;7354871;32;20108;-60
2022/11/14 18:39:44;;;;;;;15.98;11.45;;;8.70;99.90;;;;;;7351766;32;20134;-60
2022/11/14 18:43:46;;;;;;;13.85;10.40;;;8.60;99.90;;;;;;7350402;32;20134;-60
2022/11/14 18:47:48;;;;;;;14.43;10.77;;;8.70;99.90;;;;;;7352341;32;20197;-59
2022/11/14 18:51:50;;;;;;;14.38;10.77;;;8.80;99.90;;;;;;7364360;32;20107;-60
2022/11/14 18:55:52;;;;;;;15.15;9.77;;;8.80;99.90;;;;;;7351770;32;20137;-61
2022/11/14 18:59:53;;;;;;;13.93;8.85;;;9.00;99.90;;;;;;7357253;32;20111;-60
2022/11/14 19:03:59;;;;;;;15.07;11.05;;;8.90;99.90;;;;;;7353905;32;20110;-59
2022/11/14 19:08:02;;;;;;;13.70;9.85;;;8.70;99.90;;;;;;7357580;32;20143;-61
2022/11/14 19:12:22;;;;;;;12.40;9.43;;;8.70;99.90;;;;;;7356763;32;20495;-60
2022/11/14 19:16:24;;;;;;;13.02;8.93;;;8.50;99.90;;;;;;7350547;32;20112;-60
2022/11/14 19:20:26;;;;;;;14.43;9.35;;;8.40;99.90;;;;;;7337000;32;20563;-60
2022/11/14 19:24:27;;;;;;;13.95;8.93;;;8.30;99.90;;;;;;7349289;32;20150;-60
2022/11/14 19:28:29;;;;;;;14.00;9.20;;;8.20;99.90;;;;;;7356577;32;20153;-60
2022/11/14 19:32:33;;;;;;;14.50;9.80;;;8.00;99.90;;;;;;7347487;32;20183;-61
2022/11/14 19:36:35;;;;;;;12.35;9.55;;;7.90;99.90;;;;;;7345300;32;20126;-60
2022/11/14 19:40:57;;;;;;;14.38;9.50;;;7.90;99.90;;;;;;7341186;32;21198;-60
2022/11/14 19:45:05;;;;;;;14.85;9.35;;;7.90;99.90;;;;;;7349590;32;20244;-61
2022/11/14 19:49:07;;;;;;;13.32;9.98;;;7.80;99.90;;;;;;7345602;32;20111;-62
2022/11/14 19:53:09;;;;;;;15.15;10.10;;;7.70;99.90;;;;;;7348512;32;20217;-61
2022/11/14 19:57:10;;;;;;;15.90;10.27;;;7.70;99.90;;;;;;7347479;32;20107;-60
2022/11/14 20:01:18;;;;;;;16.60;11.63;;;7.70;99.90;;;;;;7337299;32;20143;-60
2022/11/14 20:05:20;;;;;;;14.02;10.50;;;7.60;99.90;;;;;;7339739;32;20133;-60
2022/11/14 20:09:21;;;;;;;18.05;11.38;;;7.50;99.90;;;;;;7347128;32;20515;-64
2022/11/14 20:13:23;;;;;;;16.08;11.73;;;7.50;99.90;;;;;;7342406;32;20107;-61
2022/11/14 20:17:25;;;;;;;14.35;10.90;;;7.40;99.90;;;;;;7349292;32;20111;-61
2022/11/14 20:21:30;;;;;;;15.63;11.40;;;7.50;99.90;;;;;;7344497;32;20133;-61
2022/11/14 20:25:34;;;;;;;17.15;11.73;;;7.50;99.90;;;;;;7348088;32;20154;-62
2022/11/14 20:29:36;;;;;;;16.12;11.15;;;7.40;99.90;;;;;;7343703;32;20134;-60
2022/11/14 20:33:40;;;;;;;15.27;10.52;;;7.50;99.90;;;;;;7337702;32;20108;-61
2022/11/14 20:37:42;;;;;;;13.02;9.88;;;7.60;99.90;;;;;;7339008;32;20111;-61
2022/11/14 20:41:44;;;;;;;13.35;10.55;;;7.60;99.90;;;;;;7339076;32;20221;-61
2022/11/14 20:45:59;;;;;;;15.20;10.52;;;7.60;99.90;;;;;;7346657;32;20225;-61
2022/11/14 20:50:02;;;;;;;15.27;10.52;;;7.70;99.90;;;;;;7338359;32;20141;-61
2022/11/14 20:54:04;;;;;;;15.30;10.77;;;7.70;99.90;;;;;;7342251;32;20222;-60
2022/11/14 20:58:05;;;;;;;14.77;10.65;;;7.80;99.90;;;;;;7340720;32;20194;-62
2022/11/14 21:02:10;;;;;;;13.18;9.70;;;7.70;99.90;;;;;;7349235;32;20483;-61
2022/11/14 21:06:13;;;;;;;13.60;10.05;;;7.80;99.90;;;;;;7347698;32;20559;-62
2022/11/14 21:14:35;;;;;;;15.00;9.73;;;7.90;99.90;;;;;;7353932;32;20226;-62
2022/11/14 21:18:37;;;;;;;14.13;9.45;;;8.00;99.90;;;;;;7349717;32;20130;-61
2022/11/14 21:22:42;;;;;;;15.88;10.32;;;8.10;99.90;;;;;;7353727;32;20119;-61
2022/11/14 21:26:44;;;;;;;12.50;9.02;;;8.10;99.90;;;;;;7350025;32;20142;-61
2022/11/14 21:30:45;;;;;;;16.85;10.30;;;8.20;99.90;;;;;;7343933;32;20111;-60
2022/11/14 21:34:47;;;;;;;12.90;9.30;;;8.20;99.90;;;;;;7352277;32;20108;-60